createdAt,value
2023-02-08T00:01:35.599Z,34.23
2023-02-08T00:04:01.960Z,33.30
2023-02-08T00:06:28.291Z,32.97
2023-02-08T00:08:54.610Z,33.27
2023-02-08T00:11:21.090Z,34.03
2023-02-08T00:13:47.420Z,31.57
2023-02-08T00:16:13.880Z,32.70
2023-02-08T00:18:40.266Z,34.03
2023-02-08T00:21:06.585Z,32.17
2023-02-08T00:23:32.918Z,33.10
2023-02-08T00:25:59.235Z,32.10
2023-02-08T00:28:25.632Z,32.30
2023-02-08T00:30:52.025Z,32.40
2023-02-08T00:33:18.344Z,31.07
2023-02-08T00:35:44.651Z,32.27
2023-02-08T00:38:10.962Z,31.47
2023-02-08T00:40:37.472Z,32.37
2023-02-08T00:43:03.862Z,31.20
2023-02-08T00:45:30.235Z,30.27
2023-02-08T00:47:56.610Z,32.33
2023-02-08T00:50:22.938Z,32.43
2023-02-08T00:52:49.253Z,29.83
2023-02-08T00:55:15.576Z,31.53
2023-02-08T00:57:41.897Z,30.43
2023-02-08T01:00:09.181Z,30.53
2023-02-08T01:02:35.492Z,30.37
2023-02-08T01:05:01.854Z,31.37
2023-02-08T01:07:28.213Z,29.87
2023-02-08T01:09:54.567Z,31.83
2023-02-08T01:12:20.898Z,29.93
2023-02-08T01:14:47.231Z,29.17
2023-02-08T01:17:13.580Z,31.33
2023-02-08T01:19:42.379Z,29.57
2023-02-08T01:22:08.877Z,28.83
2023-02-08T01:24:35.214Z,29.03
2023-02-08T01:27:01.558Z,28.30
2023-02-08T01:29:27.909Z,29.60
2023-02-08T01:31:54.311Z,29.47
2023-02-08T01:34:20.649Z,29.50
2023-02-08T01:36:46.954Z,28.33
2023-02-08T01:39:13.342Z,28.80
2023-02-08T01:41:39.727Z,28.20
2023-02-08T01:44:06.136Z,27.03
2023-02-08T01:46:32.481Z,28.40
2023-02-08T01:48:58.877Z,27.93
2023-02-08T01:51:25.199Z,27.67
2023-02-08T01:53:51.554Z,26.70
2023-02-08T01:56:17.881Z,29.33
2023-02-08T01:58:44.180Z,26.43
2023-02-08T02:01:10.626Z,26.67
2023-02-08T02:03:36.950Z,26.97
2023-02-08T02:06:03.278Z,26.53
2023-02-08T02:08:29.590Z,27.37
2023-02-08T02:10:55.917Z,26.87
2023-02-08T02:13:22.252Z,26.87
2023-02-08T02:15:48.820Z,25.93
2023-02-08T02:18:15.127Z,26.20
2023-02-08T02:20:41.740Z,26.47
2023-02-08T02:23:08.295Z,24.10
2023-02-08T02:25:34.617Z,24.30
2023-02-08T02:28:01.002Z,25.60
2023-02-08T02:30:27.346Z,24.33
2023-02-08T02:32:53.678Z,25.80
2023-02-08T02:35:20.012Z,25.07
2023-02-08T02:37:49.217Z,24.27
2023-02-08T02:40:15.517Z,24.20
2023-02-08T02:43:00.720Z,24.77
2023-02-08T02:45:27.056Z,24.73
2023-02-08T02:47:53.401Z,24.13
2023-02-08T02:50:19.784Z,21.77
2023-02-08T02:52:46.136Z,22.97
2023-02-08T02:55:12.444Z,23.73
2023-02-08T02:57:38.761Z,25.17
2023-02-08T03:00:05.079Z,23.10
2023-02-08T03:02:31.389Z,22.13
2023-02-08T03:04:57.716Z,24.20
2023-02-08T03:07:24.041Z,24.10
2023-02-08T03:09:50.538Z,25.40
2023-02-08T03:12:16.905Z,23.23
2023-02-08T03:14:43.224Z,23.67
2023-02-08T03:17:09.538Z,23.50
2023-02-08T03:19:36.280Z,23.73
2023-02-08T03:22:02.661Z,22.83
2023-02-08T03:24:29.007Z,23.43
2023-02-08T03:26:55.426Z,24.00
2023-02-08T03:29:21.729Z,23.40
2023-02-08T03:31:48.135Z,23.17
2023-02-08T03:34:14.605Z,22.73
2023-02-08T03:36:40.926Z,24.80
2023-02-08T03:39:07.672Z,24.30
2023-02-08T03:41:34.070Z,23.37
2023-02-08T03:44:00.398Z,22.73
2023-02-08T03:46:26.825Z,24.73
2023-02-08T03:48:53.158Z,22.83
2023-02-08T03:51:19.476Z,23.77
2023-02-08T03:53:45.785Z,24.93
2023-02-08T03:56:12.174Z,24.20
2023-02-08T03:58:38.495Z,23.90
2023-02-08T04:01:04.839Z,22.93
2023-02-08T04:03:31.185Z,23.63
2023-02-08T04:05:57.507Z,23.40
2023-02-08T04:08:23.875Z,23.47
2023-02-08T04:10:50.202Z,22.23
2023-02-08T04:13:16.590Z,23.30
2023-02-08T04:15:44.456Z,23.37
2023-02-08T04:18:10.839Z,24.00
2023-02-08T04:20:37.183Z,23.77
2023-02-08T04:23:03.579Z,23.07
2023-02-08T04:25:29.909Z,23.97
2023-02-08T04:27:56.216Z,24.00
2023-02-08T04:30:22.545Z,22.40
2023-02-08T04:32:48.897Z,22.47
2023-02-08T04:35:15.216Z,22.63
2023-02-08T04:37:41.535Z,21.70
2023-02-08T04:40:07.837Z,22.47
2023-02-08T04:42:34.237Z,21.67
2023-02-08T04:45:00.576Z,20.73
2023-02-08T04:47:26.895Z,22.17
2023-02-08T04:49:53.237Z,20.23
2023-02-08T04:52:19.551Z,22.47
2023-02-08T04:54:45.883Z,22.67
2023-02-08T04:57:12.228Z,23.43
2023-02-08T04:59:38.532Z,20.40
2023-02-08T05:02:04.993Z,21.47
2023-02-08T05:04:31.300Z,21.47
2023-02-08T05:06:57.625Z,22.33
2023-02-08T05:09:24.063Z,22.23
2023-02-08T05:11:50.400Z,22.20
2023-02-08T05:14:16.715Z,22.83
2023-02-08T05:16:43.063Z,23.27
2023-02-08T05:19:09.380Z,23.00
2023-02-08T05:21:35.702Z,23.10
2023-02-08T05:24:02.022Z,25.37
2023-02-08T05:26:28.438Z,23.43
2023-02-08T05:28:54.759Z,23.00
2023-02-08T05:31:21.364Z,25.70
2023-02-08T05:33:47.724Z,26.53
2023-02-08T05:36:14.031Z,26.03
2023-02-08T05:38:40.335Z,25.43
2023-02-08T05:41:06.640Z,24.90
2023-02-08T05:43:32.993Z,25.30
2023-02-08T05:45:59.314Z,25.00
2023-02-08T05:48:25.695Z,26.10
2023-02-08T05:50:52.062Z,27.47
2023-02-08T05:53:18.428Z,24.83
2023-02-08T05:55:45.100Z,26.37
2023-02-08T05:58:11.393Z,24.53
2023-02-08T06:00:37.714Z,28.13
2023-02-08T06:03:04.148Z,27.33
2023-02-08T06:05:30.562Z,27.10
2023-02-08T06:07:56.858Z,28.07
2023-02-08T06:10:23.177Z,27.57
2023-02-08T06:12:49.479Z,26.63
2023-02-08T06:15:15.795Z,29.27
2023-02-08T06:17:42.105Z,28.60
2023-02-08T06:20:08.424Z,26.03
2023-02-08T06:22:34.793Z,28.77
2023-02-08T06:25:01.093Z,25.83
2023-02-08T06:27:27.712Z,27.10
2023-02-08T06:29:54.064Z,28.20
2023-02-08T06:32:20.424Z,26.10
2023-02-08T06:34:48.354Z,26.97
2023-02-08T06:37:14.678Z,27.30
2023-02-08T06:39:41.547Z,28.43
2023-02-08T06:42:07.879Z,28.53
2023-02-08T06:44:34.196Z,27.83
2023-02-08T06:47:00.524Z,26.70
2023-02-08T06:49:26.842Z,28.33
2023-02-08T06:51:53.155Z,29.07
2023-02-08T06:54:19.511Z,28.33
2023-02-08T06:56:45.826Z,27.77
2023-02-08T06:59:12.138Z,28.17
2023-02-08T07:01:38.461Z,27.43
2023-02-08T07:04:04.785Z,29.00
2023-02-08T07:06:31.088Z,28.63
2023-02-08T07:08:57.405Z,29.00
2023-02-08T07:11:23.720Z,29.17
2023-02-08T07:13:50.063Z,26.87
2023-02-08T07:16:16.454Z,27.33
2023-02-08T07:18:42.769Z,27.97
2023-02-08T07:21:10.642Z,26.73
2023-02-08T07:23:36.983Z,26.87
2023-02-08T07:26:03.286Z,28.13
2023-02-08T07:28:29.592Z,27.03
2023-02-08T07:30:55.922Z,27.53
2023-02-08T07:33:22.216Z,28.90
2023-02-08T07:35:48.526Z,27.93
2023-02-08T07:38:14.860Z,25.47
2023-02-08T07:40:41.492Z,25.30
2023-02-08T07:43:07.989Z,27.97
2023-02-08T07:45:34.414Z,25.47
2023-02-08T07:48:00.740Z,27.10
2023-02-08T07:50:27.043Z,27.50
2023-02-08T07:52:53.389Z,28.57
2023-02-08T07:55:20.597Z,25.83
2023-02-08T07:57:47.436Z,28.37
2023-02-08T08:00:13.757Z,28.33
2023-02-08T08:02:40.122Z,25.33
2023-02-08T08:05:06.443Z,27.07
2023-02-08T08:07:32.803Z,27.97
2023-02-08T08:09:59.184Z,26.20
2023-02-08T08:12:25.569Z,28.03
2023-02-08T08:14:51.888Z,20.27
2023-02-08T08:17:18.211Z,23.97
2023-02-08T08:19:44.549Z,29.77
2023-02-08T08:22:10.843Z,29.53
2023-02-08T08:24:37.279Z,30.20
2023-02-08T08:27:04.756Z,29.00
2023-02-08T08:29:31.203Z,28.70
2023-02-08T08:31:57.534Z,28.50
2023-02-08T08:34:29.823Z,28.57
2023-02-08T08:36:56.162Z,26.93
2023-02-08T08:39:22.504Z,29.33
2023-02-08T08:41:48.814Z,28.57
2023-02-08T08:44:15.151Z,28.87
2023-02-08T08:46:41.665Z,25.00
2023-02-08T08:49:08.014Z,23.20
2023-02-08T08:51:35.552Z,28.13
2023-02-08T08:54:01.892Z,24.30
2023-02-08T08:56:28.238Z,22.27
2023-02-08T08:58:54.550Z,24.10
2023-02-08T09:01:21.023Z,25.87
2023-02-08T09:03:47.395Z,24.53
2023-02-08T09:06:13.738Z,23.30
2023-02-08T09:08:40.074Z,25.47
2023-02-08T09:11:06.439Z,23.27
2023-02-08T09:13:32.756Z,23.70
2023-02-08T09:15:59.274Z,23.60
2023-02-08T09:18:25.638Z,24.15
2023-02-08T09:20:51.958Z,23.20
2023-02-08T09:23:18.277Z,17.70
2023-02-08T09:25:44.674Z,22.50
2023-02-08T09:28:11.122Z,22.20
2023-02-08T09:30:37.530Z,21.37
2023-02-08T09:33:03.840Z,20.62
2023-02-08T09:35:30.408Z,21.37
2023-02-08T09:37:58.296Z,22.45
2023-02-08T09:40:24.710Z,22.13
2023-02-08T09:42:51.018Z,20.20
2023-02-08T09:45:17.357Z,20.67
2023-02-08T09:47:43.674Z,21.05
2023-02-08T09:50:09.984Z,19.90
2023-02-08T09:52:36.338Z,20.25
2023-02-08T09:55:02.702Z,20.03
2023-02-08T09:57:29.053Z,21.95
2023-02-08T09:59:55.434Z,20.60
2023-02-08T10:02:21.749Z,19.90
2023-02-08T10:04:48.056Z,19.87
2023-02-08T10:07:14.405Z,21.10
2023-02-08T10:09:40.728Z,17.95
2023-02-08T10:12:07.087Z,21.75
2023-02-08T10:14:33.404Z,20.80
2023-02-08T10:16:59.897Z,21.40
2023-02-08T10:19:26.201Z,21.27
2023-02-08T10:21:52.495Z,21.67
2023-02-08T10:24:18.812Z,20.98
2023-02-08T10:26:45.216Z,21.48
2023-02-08T10:29:11.566Z,19.85
2023-02-08T10:31:38.016Z,19.77
2023-02-08T10:34:05.513Z,20.62
2023-02-08T10:36:33.340Z,19.98
2023-02-08T10:38:59.657Z,18.10
2023-02-08T10:41:25.970Z,18.92
2023-02-08T10:43:52.573Z,20.42
2023-02-08T10:46:18.995Z,19.48
2023-02-08T10:48:45.347Z,20.88
2023-02-08T10:51:11.876Z,19.70
2023-02-08T10:53:38.255Z,18.85
2023-02-08T10:56:04.590Z,17.52
2023-02-08T10:58:30.984Z,19.73
2023-02-08T11:00:58.616Z,15.20
2023-02-08T11:03:25.034Z,18.48
2023-02-08T11:05:51.602Z,18.37
2023-02-08T11:08:19.776Z,18.30
2023-02-08T11:10:46.099Z,18.50
2023-02-08T11:13:12.418Z,18.45
2023-02-08T11:15:39.038Z,16.05
2023-02-08T11:18:05.358Z,17.83
2023-02-08T11:20:31.753Z,18.90
2023-02-08T11:22:58.067Z,16.65
2023-02-08T11:25:24.391Z,17.35
2023-02-08T11:27:50.831Z,18.35
2023-02-08T11:30:18.125Z,18.42
2023-02-08T11:32:44.445Z,17.85
2023-02-08T11:35:10.766Z,18.23
2023-02-08T11:37:37.121Z,17.48
2023-02-08T11:40:03.970Z,17.98
2023-02-08T11:42:30.340Z,17.67
2023-02-08T11:44:56.679Z,17.17
2023-02-08T11:47:22.997Z,18.40
2023-02-08T11:49:49.325Z,16.75
2023-02-08T11:52:15.634Z,12.40
2023-02-08T11:54:42.063Z,18.33
2023-02-08T11:57:08.389Z,17.10
2023-02-08T11:59:34.720Z,18.35
2023-02-08T12:02:01.031Z,16.92
2023-02-08T12:04:27.345Z,14.32
2023-02-08T12:06:53.674Z,15.88
2023-02-08T12:09:19.977Z,16.00
2023-02-08T12:11:46.305Z,16.50
2023-02-08T12:14:13.104Z,16.30
2023-02-08T12:16:39.515Z,17.17
2023-02-08T12:19:05.895Z,16.30
2023-02-08T12:21:32.204Z,17.55
2023-02-08T12:23:59.240Z,16.48
2023-02-08T12:26:25.564Z,16.75
2023-02-08T12:28:51.906Z,16.33
2023-02-08T12:31:18.364Z,15.93
2023-02-08T12:33:44.722Z,16.42
2023-02-08T12:36:11.456Z,17.23
2023-02-08T12:38:56.954Z,16.65
2023-02-08T12:41:23.584Z,16.02
2023-02-08T12:43:49.988Z,14.90
2023-02-08T12:46:16.308Z,16.50
2023-02-08T12:48:42.634Z,14.13
2023-02-08T12:51:08.999Z,15.02
2023-02-08T12:53:35.341Z,14.80
2023-02-08T12:56:01.655Z,12.98
2023-02-08T12:58:28.021Z,13.55
2023-02-08T13:00:54.395Z,12.48
2023-02-08T13:03:20.738Z,13.65
2023-02-08T13:06:01.355Z,13.40
2023-02-08T13:08:28.699Z,13.13
2023-02-08T13:10:55.028Z,12.57
2023-02-08T13:13:21.341Z,12.80
2023-02-08T13:15:47.888Z,12.48
2023-02-08T13:18:14.298Z,12.57
2023-02-08T13:20:40.654Z,14.02
2023-02-08T13:23:06.975Z,13.77
2023-02-08T13:25:33.311Z,13.05
2023-02-08T13:27:59.659Z,10.52
2023-02-08T13:30:26.036Z,14.20
2023-02-08T13:32:52.379Z,13.48
2023-02-08T13:35:18.700Z,13.88
2023-02-08T13:37:45.042Z,14.68
2023-02-08T13:40:11.409Z,12.43
2023-02-08T13:42:38.167Z,13.95
2023-02-08T13:45:04.474Z,15.23
2023-02-08T13:47:30.779Z,14.52
2023-02-08T13:49:57.164Z,15.32
2023-02-08T13:52:23.483Z,13.98
2023-02-08T13:54:49.789Z,14.70
2023-02-08T13:57:16.100Z,15.95
2023-02-08T13:59:42.533Z,15.30
2023-02-08T14:02:08.862Z,15.50
2023-02-08T14:04:35.272Z,13.32
2023-02-08T14:07:01.634Z,14.23
2023-02-08T14:09:28.056Z,16.02
2023-02-08T14:11:54.442Z,15.13
2023-02-08T14:14:20.803Z,15.30
2023-02-08T14:16:47.144Z,14.20
2023-02-08T14:19:13.467Z,14.60
2023-02-08T14:21:39.867Z,13.98
2023-02-08T14:24:06.315Z,13.82
2023-02-08T14:26:32.716Z,13.15
2023-02-08T14:28:59.087Z,13.32
2023-02-08T14:31:26.201Z,12.02
2023-02-08T14:33:53.075Z,12.32
2023-02-08T14:36:19.412Z,12.65
2023-02-08T14:38:45.738Z,11.70
2023-02-08T14:41:12.059Z,11.85
2023-02-08T14:43:38.449Z,12.68
2023-02-08T14:46:04.774Z,12.65
2023-02-08T14:48:31.158Z,12.98
2023-02-08T14:50:57.496Z,13.38
2023-02-08T14:53:23.803Z,13.80
2023-02-08T14:55:50.342Z,14.27
2023-02-08T14:58:16.709Z,13.20
2023-02-08T15:00:43.035Z,12.37
2023-02-08T15:03:09.338Z,13.23
2023-02-08T15:05:35.670Z,13.43
2023-02-08T15:08:02.116Z,13.90
2023-02-08T15:10:30.305Z,15.20
2023-02-08T15:12:57.765Z,14.77
2023-02-08T15:15:24.181Z,14.95
2023-02-08T15:17:50.581Z,14.35
2023-02-08T15:20:17.036Z,11.95
2023-02-08T15:22:43.393Z,14.35
2023-02-08T15:25:09.714Z,13.35
2023-02-08T15:27:36.069Z,13.75
2023-02-08T15:30:02.434Z,14.18
2023-02-08T15:32:28.778Z,14.15
2023-02-08T15:34:55.154Z,13.48
2023-02-08T15:37:21.487Z,13.27
2023-02-08T15:39:47.810Z,12.70
2023-02-08T15:42:14.124Z,13.88
2023-02-08T15:44:40.454Z,14.10
2023-02-08T15:47:06.753Z,13.68
2023-02-08T15:49:33.146Z,12.30
2023-02-08T15:51:59.481Z,14.57
2023-02-08T15:54:25.913Z,13.90
2023-02-08T15:56:52.278Z,13.45
2023-02-08T15:59:18.602Z,13.30
2023-02-08T16:01:44.924Z,13.20
2023-02-08T16:04:12.716Z,13.98
2023-02-08T16:06:39.178Z,13.57
2023-02-08T16:09:05.902Z,13.02
2023-02-08T16:11:32.262Z,14.23
2023-02-08T16:13:58.591Z,13.30
2023-02-08T16:16:30.124Z,14.45
2023-02-08T16:18:58.424Z,15.02
2023-02-08T16:21:24.830Z,15.15
2023-02-08T16:23:51.354Z,15.63
2023-02-08T16:26:17.927Z,14.93
2023-02-08T16:28:44.336Z,16.17
2023-02-08T16:31:11.527Z,14.93
2023-02-08T16:33:39.676Z,15.07
2023-02-08T16:36:06.013Z,15.10
2023-02-08T16:38:32.400Z,14.48
2023-02-08T16:41:12.075Z,14.95
2023-02-08T16:43:40.280Z,14.30
2023-02-08T16:46:06.605Z,15.35
2023-02-08T16:48:34.967Z,15.30
2023-02-08T16:51:01.300Z,15.20
2023-02-08T16:53:40.255Z,14.45
2023-02-08T16:56:08.137Z,15.13
2023-02-08T16:58:34.485Z,14.50
2023-02-08T17:01:00.875Z,14.73
2023-02-08T17:03:27.319Z,15.80
2023-02-08T17:05:53.652Z,15.57
2023-02-08T17:08:19.962Z,16.02
2023-02-08T17:10:48.609Z,15.48
2023-02-08T17:13:20.804Z,15.18
2023-02-08T17:15:47.831Z,15.32
2023-02-08T17:18:14.392Z,15.40
2023-02-08T17:20:40.741Z,15.60
2023-02-08T17:23:07.089Z,16.17
2023-02-08T17:25:37.117Z,15.63
2023-02-08T17:28:03.478Z,15.95
2023-02-08T17:30:29.796Z,17.12
2023-02-08T17:32:59.320Z,16.55
2023-02-08T17:35:25.653Z,15.85
2023-02-08T17:37:53.988Z,16.52
2023-02-08T17:40:20.366Z,15.57
2023-02-08T17:42:47.693Z,14.95
2023-02-08T17:45:14.148Z,15.73
2023-02-08T17:47:41.803Z,16.17
2023-02-08T17:50:08.146Z,16.62
2023-02-08T17:52:34.476Z,15.90
2023-02-08T17:55:00.845Z,17.00
2023-02-08T17:57:27.248Z,15.30
2023-02-08T17:59:53.641Z,15.97
2023-02-08T18:02:20.124Z,16.17
2023-02-08T18:04:46.470Z,15.52
2023-02-08T18:07:12.851Z,15.80
2023-02-08T18:09:39.544Z,16.92
2023-02-08T18:12:05.932Z,17.20
2023-02-08T18:14:32.244Z,17.58
2023-02-08T18:16:58.572Z,16.92
2023-02-08T18:19:24.886Z,16.73
2023-02-08T18:21:51.266Z,16.35
2023-02-08T18:24:18.871Z,17.83
2023-02-08T18:26:45.197Z,17.05
2023-02-08T18:29:15.064Z,17.40
2023-02-08T18:31:41.585Z,17.97
2023-02-08T18:34:08.005Z,17.17
2023-02-08T18:36:34.426Z,16.37
2023-02-08T18:39:00.763Z,19.83
2023-02-08T18:41:27.124Z,18.52
2023-02-08T18:43:54.910Z,17.37
2023-02-08T18:46:21.285Z,17.45
2023-02-08T18:48:47.986Z,17.37
2023-02-08T18:51:14.719Z,18.70
2023-02-08T18:53:41.023Z,17.60
2023-02-08T18:56:07.355Z,17.00
2023-02-08T18:58:33.661Z,17.80
2023-02-08T19:01:00.039Z,17.70
2023-02-08T19:03:26.475Z,15.98
2023-02-08T19:05:52.799Z,17.50
2023-02-08T19:08:20.659Z,17.80
2023-02-08T19:10:46.981Z,16.80
2023-02-08T19:13:13.406Z,16.57
2023-02-08T19:15:39.790Z,16.77
2023-02-08T19:18:06.158Z,17.93
2023-02-08T19:20:32.491Z,17.43
2023-02-08T19:22:58.959Z,18.12
2023-02-08T19:25:29.005Z,18.50
2023-02-08T19:27:55.383Z,16.65
2023-02-08T19:30:22.313Z,17.87
2023-02-08T19:32:48.777Z,17.40
2023-02-08T19:35:15.080Z,17.83
2023-02-08T19:37:42.545Z,16.73
2023-02-08T19:40:08.933Z,16.73
2023-02-08T19:42:35.424Z,16.80
2023-02-08T19:45:01.890Z,16.77
2023-02-08T19:47:48.421Z,17.47
2023-02-08T19:50:14.574Z,16.50
2023-02-08T19:52:43.423Z,16.90
2023-02-08T19:55:09.853Z,17.90
2023-02-08T19:57:36.225Z,17.47
2023-02-08T20:00:04.408Z,16.37
2023-02-08T20:02:32.762Z,17.87
2023-02-08T20:04:59.194Z,17.02
2023-02-08T20:07:25.526Z,15.63
2023-02-08T20:09:51.832Z,15.43
2023-02-08T20:12:19.789Z,15.30
2023-02-08T20:14:46.174Z,15.50
2023-02-08T20:17:12.499Z,14.80
2023-02-08T20:19:38.861Z,14.97
2023-02-08T20:22:05.243Z,14.40
2023-02-08T20:24:31.723Z,13.85
2023-02-08T20:26:58.039Z,14.63
2023-02-08T20:29:25.175Z,15.80
2023-02-08T20:31:58.254Z,14.87
2023-02-08T20:34:24.644Z,14.37
2023-02-08T20:37:05.753Z,15.23
2023-02-08T20:39:33.500Z,14.05
2023-02-08T20:41:59.883Z,14.30
2023-02-08T20:44:26.255Z,13.88
2023-02-08T20:46:54.642Z,14.50
2023-02-08T20:49:25.489Z,14.17
2023-02-08T20:51:52.420Z,13.47
2023-02-08T20:54:19.269Z,13.33
2023-02-08T20:56:45.597Z,14.10
2023-02-08T20:59:13.816Z,12.52
2023-02-08T21:01:40.301Z,13.47
2023-02-08T21:04:06.783Z,12.37
2023-02-08T21:06:33.169Z,13.90
2023-02-08T21:08:59.531Z,13.03
2023-02-08T21:11:25.836Z,11.70
2023-02-08T21:13:52.183Z,11.70
2023-02-08T21:16:18.587Z,12.52
2023-02-08T21:18:45.792Z,12.07
2023-02-08T21:21:12.135Z,11.10
2023-02-08T21:23:38.435Z,12.70
2023-02-08T21:26:04.800Z,10.27
2023-02-08T21:28:31.218Z,10.30
2023-02-08T21:30:57.714Z,10.40
2023-02-08T21:33:24.135Z,9.70
2023-02-08T21:35:50.450Z,8.95
2023-02-08T21:38:16.761Z,9.07
2023-02-08T21:40:43.411Z,9.65
2023-02-08T21:43:09.968Z,9.27
2023-02-08T21:45:36.270Z,9.23
2023-02-08T21:48:02.607Z,9.40
2023-02-08T21:50:47.902Z,8.65
2023-02-08T21:53:32.754Z,8.50
2023-02-08T21:55:59.136Z,8.93
2023-02-08T21:58:25.478Z,9.05
2023-02-08T22:00:51.793Z,8.50
2023-02-08T22:03:18.254Z,8.82
2023-02-08T22:05:44.573Z,8.67
2023-02-08T22:08:10.980Z,8.55
2023-02-08T22:10:38.254Z,8.88
2023-02-08T22:13:04.607Z,8.95
2023-02-08T22:15:31.048Z,9.63
2023-02-08T22:17:57.429Z,8.80
2023-02-08T22:20:23.747Z,8.85
2023-02-08T22:22:53.613Z,8.38
2023-02-08T22:25:21.239Z,9.60
2023-02-08T22:27:47.582Z,8.80
2023-02-08T22:30:13.891Z,8.73
2023-02-08T22:32:40.310Z,8.38
2023-02-08T22:35:06.665Z,9.35
2023-02-08T22:37:32.985Z,9.18
2023-02-08T22:39:59.308Z,8.73
2023-02-08T22:42:27.835Z,8.95
2023-02-08T22:44:54.148Z,9.02
2023-02-08T22:47:20.457Z,9.38
2023-02-08T22:49:46.802Z,8.82
2023-02-08T22:52:14.341Z,9.60
2023-02-08T22:54:40.661Z,9.37
2023-02-08T22:57:07.054Z,9.45
2023-02-08T22:59:33.480Z,9.93
2023-02-08T23:02:01.744Z,10.55
2023-02-08T23:04:28.140Z,9.77
2023-02-08T23:06:54.546Z,9.23
2023-02-08T23:09:20.846Z,8.90
2023-02-08T23:11:47.181Z,9.25
2023-02-08T23:14:13.494Z,9.10
2023-02-08T23:16:39.818Z,8.40
2023-02-08T23:19:06.179Z,9.48
2023-02-08T23:21:32.509Z,9.77
2023-02-08T23:23:58.815Z,9.60
2023-02-08T23:26:25.112Z,9.35
2023-02-08T23:28:51.425Z,8.95
2023-02-08T23:31:17.886Z,8.97
2023-02-08T23:33:44.286Z,10.02
2023-02-08T23:36:11.336Z,9.88
2023-02-08T23:38:37.656Z,8.30
2023-02-08T23:41:04.048Z,9.23
2023-02-08T23:43:30.352Z,9.30
2023-02-08T23:45:56.676Z,9.32
2023-02-08T23:48:22.993Z,9.17
2023-02-08T23:50:49.297Z,9.13
2023-02-08T23:53:15.608Z,9.10
2023-02-08T23:55:41.914Z,8.77
2023-02-08T23:58:08.216Z,8.47
